Latest Weather Observations for Nerriga

IDN60801

Issued at 2:33 pm EST Monday 31 August 2015 (issued every 30 minutes, with the page automatically refreshed every 10 minutes)

About weather observations | Map of weather stations | Latest weather observations for NSW | Other Formats
Station Details ID: 069128 Name: NERRIGA AWS Lat: -35.11 Lon: 150.08 Height: 622.0 m
Data from the previous 72 hours. | See also: Recent months at Nerriga
Date/Time
EST
Temp
°C
App
Temp
°C
Dew
Point
Rel
Hum
%
Delta-T
°C
Wind Press
QNH
hPa
Press
MSL
hPa
Rain
since 9 am
mm
Dir
 
Spd
km/h
Gust
km/h
Spd
kts
Gust
kts
31/02:30pm 12.7 9.9 2.3 49 4.7 WSW 6 7 3 4 1014.3 1015.0 0.0
31/02:00pm 13.4 10.0 1.7 45 5.2 W 9 17 5 9 1014.6 1015.3 0.0
31/01:30pm 13.0 8.8 1.7 46 5.0 W 13 20 7 11 1014.9 1015.6 0.0
31/01:00pm 12.4 8.6 2.0 49 4.6 W 11 19 6 10 1015.3 1016.0 0.0
31/12:30pm 11.8 8.4 2.0 51 4.4 W 9 17 5 9 1015.7 1016.4 0.0
31/12:00pm 11.1 8.0 1.4 51 4.2 WNW 7 15 4 8 1016.0 1016.7 0.0
31/11:30am 10.3 7.2 0.3 50 4.2 WSW 6 13 3 7 1016.5 1017.3 0.0
31/11:00am 10.1 6.7 1.7 56 3.6 WSW 9 15 5 8 1016.8 1017.6 0.0
31/10:30am 8.6 5.7 2.4 65 2.7 WSW 7 13 4 7 1017.1 1017.8 0.0
31/10:00am 7.1 4.3 2.0 70 2.2 SSW 6 9 3 5 1017.4 1018.1 0.0
31/09:30am 6.0 3.3 2.8 80 1.4 SSW 6 9 3 5 1017.6 1018.3 0.0
31/09:00am 4.9 2.0 1.6 79 1.4 SE 6 9 3 5 1017.7 1018.4 1.2
31/08:30am 3.8 1.8 2.2 89 0.7 SE 2 6 1 3 1017.7 1018.4 1.2
31/08:00am 2.2 0.3 0.7 90 0.6 CALM 0 0 0 0 1017.6 1018.3 1.2
31/07:30am 0.4 -1.6 -0.2 96 0.2 CALM 0 0 0 0 1017.6 1018.3 1.2
31/07:00am -1.1 -3.3 -1.5 97 0.1 CALM 0 0 0 0 1017.6 1018.3 1.0
31/06:30am -1.5 -3.7 -1.9 97 0.1 CALM 0 0 0 0 1017.4 1018.1 1.0
31/06:00am -1.1 -3.3 -1.5 97 0.1 CALM 0 0 0 0 1017.1 1017.8 1.0
31/05:30am -0.4 -2.5 -0.7 98 0.1 CALM 0 0 0 0 1017.1 1017.8 1.0
31/05:00am -0.8 -3.7 -1.2 97 0.1 SE 4 4 2 2 1017.0 1017.7 1.0
31/04:30am -0.4 -3.3 -1.1 95 0.2 SE 4 4 2 2 1017.0 1017.7 1.0
31/04:00am 0.2 -2.6 -0.6 94 0.3 SE 4 4 2 2 1017.0 1017.7 1.0
31/03:30am 0.9 -1.8 0.0 94 0.3 SE 4 6 2 3 1017.1 1017.8 1.0
31/03:00am 0.7 -2.6 0.1 96 0.2 SE 7 9 4 5 1017.3 1018.0 1.0
31/02:30am -0.1 -3.3 -0.8 95 0.3 SE 6 6 3 3 1017.6 1018.3 1.0
31/02:00am 1.6 -0.6 1.3 98 0.1 SE 2 4 1 2 1018.2 1019.0 1.0
31/01:30am 0.8 -2.3 0.4 97 0.2 SE 6 7 3 4 1018.4 1019.2 1.0
31/01:00am 1.1 -1.9 0.7 97 0.2 SE 6 7 3 4 1018.7 1019.4 1.0
31/12:30am 2.0 -0.9 1.7 98 0.1 SE 6 6 3 3 1018.9 1019.6 1.0
31/12:00am 2.4 -0.1 1.8 96 0.2 SE 4 4 2 2 1019.0 1019.7 1.0
 
Date/Time
EST
Temp
°C
App
Temp
°C
Dew
Point
Rel
Hum
%
Delta-T
°C
Wind Press
QNH
hPa
Press
MSL
hPa
Rain
since 9 am
mm
Dir
 
Spd
km/h
Gust
km/h
Spd
kts
Gust
kts
30/11:30pm 3.2 1.3 2.8 97 0.2 SE 2 2 1 1 1019.1 1019.8 1.0
30/11:00pm 3.4 1.1 2.8 96 0.3 SE 4 6 2 3 1019.0 1019.7 1.0
30/10:30pm 4.1 1.3 3.2 94 0.4 SE 7 9 4 5 1019.1 1019.8 1.0
30/10:00pm 4.6 2.5 4.0 96 0.3 SE 4 6 2 3 1019.3 1020.1 1.0
30/09:30pm 5.9 4.1 5.5 97 0.2 SE 4 6 2 3 1019.4 1020.2 1.0
30/09:00pm 5.6 3.8 5.3 98 0.1 SE 4 4 2 2 1019.5 1020.3 1.0
30/08:30pm 5.7 4.6 5.3 97 0.2 CALM 0 2 0 1 1019.5 1020.3 1.0
30/08:00pm 6.2 4.8 5.6 96 0.3 SE 2 4 1 2 1019.2 1020.0 1.0
30/07:30pm 6.9 5.7 6.3 96 0.3 SE 2 2 1 1 1019.0 1019.7 1.0
30/07:00pm 7.0 5.4 6.3 95 0.3 SE 4 4 2 2 1018.8 1019.5 1.0
30/06:30pm 7.5 6.3 6.4 93 0.5 SE 2 6 1 3 1018.7 1019.4 1.0
30/06:00pm 8.0 6.5 6.6 91 0.7 SE 4 6 2 3 1018.4 1019.2 0.8
30/05:30pm 8.2 6.1 6.0 86 1.0 SE 6 7 3 4 1018.3 1019.1 0.6
30/05:00pm 9.3 6.7 6.0 80 1.6 SE 9 15 5 8 1017.9 1018.7 0.0
30/04:30pm 10.1 7.4 5.7 74 2.1 E 9 13 5 7 1017.6 1018.3 0.0
30/04:00pm 11.3 8.9 4.1 61 3.3 SW 6 7 3 4 1017.5 1018.2 0.0
30/03:30pm 11.4 9.0 4.2 61 3.4 SW 6 9 3 5 1017.5 1018.2 0.0
30/03:00pm 11.5 8.7 3.3 57 3.7 SW 7 11 4 6 1017.7 1018.4 0.0
30/02:30pm 11.9 9.2 3.9 58 3.7 SW 7 17 4 9 1017.7 1018.4 0.0
30/02:00pm 12.1 9.6 3.6 56 3.9 SW 6 9 3 5 1017.8 1018.6 0.0
30/01:30pm 12.5 10.6 4.7 59 3.7 SW 4 11 2 6 1017.9 1018.7 0.0
30/01:00pm 12.1 9.5 3.1 54 4.1 SW 6 11 3 6 1018.3 1019.1 0.0
30/12:30pm 11.7 9.9 3.7 58 3.7 SW 2 6 1 3 1018.7 1019.4 0.0
30/12:00pm 11.1 8.3 2.9 57 3.7 SSW 7 19 4 10 1019.2 1020.0 0.0
30/11:30am 10.8 7.3 3.6 61 3.3 WSW 11 19 6 10 1019.6 1020.4 0.0
30/11:00am 10.4 7.2 3.2 61 3.2 WSW 9 13 5 7 1020.0 1020.8 0.0
30/10:30am 10.0 7.3 3.7 65 2.9 WSW 7 13 4 7 1020.1 1020.9 0.0
30/10:00am 8.1 5.3 3.4 72 2.1 WSW 7 9 4 5 1020.1 1020.9 0.0
30/09:30am 6.5 3.3 2.9 78 1.6 W 9 13 5 7 1020.2 1021.0 0.0
30/09:00am 5.1 3.2 2.6 84 1.1 W 2 6 1 3 1020.5 1021.2 0.0
30/08:30am 3.4 1.7 1.8 89 0.7 CALM 0 0 0 0 1020.5 1021.2 0.0
30/08:00am 1.8 -0.1 0.8 93 0.4 CALM 0 0 0 0 1020.4 1021.1 0.0
30/07:30am 1.1 -0.8 0.7 97 0.2 CALM 0 0 0 0 1020.0 1020.8 0.0
30/07:00am -0.8 -2.9 -1.1 98 0.1 CALM 0 0 0 0 1019.8 1020.6 0.0
30/06:30am -1.4 -3.6 -1.7 98 0.0 CALM 0 0 0 0 1019.7 1020.5 0.0
30/06:00am -1.7 -4.0 -2.1 97 0.1 CALM 0 0 0 0 1019.5 1020.3 0.0
30/05:30am -1.8 -4.1 -2.2 97 0.1 CALM 0 0 0 0 1019.5 1020.3 0.0
30/05:00am -1.4 -3.6 -1.8 97 0.1 CALM 0 0 0 0 1019.5 1020.3 0.0
30/04:30am -1.7 -5.1 -2.3 96 0.1 W 6 6 3 3 1019.5 1020.3 0.0
30/04:00am -1.1 -3.3 -1.5 97 0.1 CALM 0 0 0 0 1019.6 1020.4 0.0
30/03:30am -1.0 -3.2 -1.4 97 0.1 CALM 0 0 0 0 1019.5 1020.3 0.0
30/03:00am -1.1 -3.3 -1.5 97 0.1 CALM 0 0 0 0 1019.8 1020.6 0.0
30/02:30am -0.5 -2.6 -0.9 97 0.1 CALM 0 0 0 0 1019.9 1020.7 0.0
30/02:00am -1.0 -3.6 -1.6 96 0.2 W 2 4 1 2 1020.1 1020.9 0.0
30/01:30am -0.6 -2.7 -1.0 97 0.1 CALM 0 0 0 0 1020.6 1021.4 0.0
30/01:00am -1.0 -3.6 -1.7 95 0.2 W 2 7 1 4 1021.0 1021.8 0.0
30/12:30am 0.1 -2.0 -0.5 96 0.2 CALM 0 0 0 0 1021.1 1021.9 0.0
30/12:00am -0.3 -2.5 -1.4 92 0.4 CALM 0 0 0 0 1020.9 1021.7 0.0
 
Date/Time
EST
Temp
°C
App
Temp
°C
Dew
Point
Rel
Hum
%
Delta-T
°C
Wind Press
QNH
hPa
Press
MSL
hPa
Rain
since 9 am
mm
Dir
 
Spd
km/h
Gust
km/h
Spd
kts
Gust
kts
29/11:30pm 1.5 -0.9 -0.4 87 0.7 W 2 4 1 2 1020.7 1021.5 0.0
29/11:00pm 1.6 -1.2 -0.3 87 0.7 W 4 4 2 2 1020.8 1021.6 0.0
29/10:30pm 1.9 -0.5 -0.5 84 0.9 W 2 6 1 3 1020.8 1021.6 0.0
29/10:00pm 2.0 -0.8 -0.1 86 0.8 W 4 6 2 3 1020.7 1021.5 0.0
29/09:30pm 2.2 -0.6 -0.2 84 0.9 W 4 4 2 2 1020.6 1021.4 0.0
29/09:00pm 2.1 0.1 -0.2 85 0.9 CALM 0 0 0 0 1020.7 1021.5 0.0
29/08:30pm 4.0 2.0 -0.2 74 1.6 CALM 0 0 0 0 1020.5 1021.2 0.0
29/08:00pm 3.6 1.6 -0.4 75 1.5 CALM 0 0 0 0 1020.2 1021.0 0.0
29/07:30pm 5.6 2.4 -0.4 65 2.4 W 6 7 3 4 1020.0 1020.8 0.0
29/07:00pm 6.2 2.1 -0.5 62 2.7 W 11 17 6 9 1019.8 1020.6 0.0
29/06:30pm 6.6 2.2 0.1 63 2.6 W 13 22 7 12 1019.5 1020.3 0.0
29/06:00pm 6.8 3.4 -0.4 60 2.9 W 7 9 4 5 1019.2 1020.0 0.0
29/05:30pm 8.5 3.6 -0.3 54 3.6 W 15 22 8 12 1019.0 1019.7 0.0
29/05:00pm 9.6 2.9 -0.9 48 4.3 W 24 32 13 17 1018.4 1019.2 0.0
29/04:30pm 10.4 4.6 -0.1 48 4.4 WNW 20 32 11 17 1018.3 1019.1 0.0
29/04:00pm 11.2 4.4 0.9 49 4.4 W 26 39 14 21 1018.0 1018.8 0.0
29/03:30pm 11.5 4.5 -0.3 44 5.0 WNW 26 39 14 21 1018.1 1018.9 0.0
29/03:00pm 11.7 4.0 -0.4 43 5.1 WNW 30 37 16 20 1018.0 1018.8 0.0
29/02:30pm 11.7 4.5 0.5 46 4.8 WNW 28 43 15 23 1018.1 1018.9 0.0
29/02:00pm 11.9 5.3 2.1 51 4.4 W 26 35 14 19 1018.1 1018.9 0.0
29/01:30pm 11.6 5.3 1.8 51 4.3 WNW 24 32 13 17 1018.7 1019.4 0.0
29/01:00pm 11.2 4.5 1.2 50 4.3 WNW 26 39 14 21 1019.0 1019.7 0.0
29/12:30pm 10.3 4.0 1.7 55 3.7 W 24 35 13 19 1019.7 1020.5 0.0
29/12:00pm 10.3 3.5 3.3 62 3.2 W 28 39 15 21 1020.1 1020.9 0.0
29/11:30am 10.5 3.1 2.1 56 3.7 WNW 30 46 16 25 1020.1 1020.9 0.0
29/11:00am 10.3 3.8 2.7 59 3.4 WNW 26 41 14 22 1020.7 1021.5 0.0
29/10:30am 9.3 4.1 3.7 68 2.5 WNW 20 28 11 15 1021.1 1021.9 0.0
29/10:00am 9.0 2.3 3.8 70 2.3 WNW 28 37 15 20 1021.3 1022.1 0.0
29/09:30am 8.7 3.5 3.7 71 2.2 W 20 35 11 19 1021.4 1022.2 0.0
29/09:00am 8.0 3.3 3.3 72 2.1 W 17 26 9 14 1021.5 1022.3 1.8
29/08:30am 7.2 2.9 3.4 77 1.7 WNW 15 20 8 11 1021.6 1022.4 1.8
29/08:00am 6.3 2.0 3.3 81 1.3 WNW 15 19 8 10 1021.7 1022.5 1.8
29/07:30am 5.3 1.8 3.3 87 0.9 WNW 11 17 6 9 1021.7 1022.5 1.8
29/07:00am 4.5 1.4 3.6 94 0.4 WNW 9 15 5 8 1021.4 1022.2 1.8
29/06:30am 4.0 0.9 3.4 96 0.3 WNW 9 15 5 8 1021.3 1022.1 1.8
29/06:00am 3.7 0.6 3.4 98 0.1 WNW 9 13 5 7 1021.1 1021.9 1.8
29/05:30am 3.2 0.4 3.1 99 0.0 WNW 7 9 4 5 1021.1 1021.9 1.8
29/05:00am 3.4 -0.1 3.3 99 0.0 W 11 13 6 7 1020.9 1021.7 1.8
29/04:30am 3.3 0.5 3.2 99 0.0 W 7 9 4 5 1020.9 1021.7 1.8
29/04:00am 3.9 1.7 3.6 98 0.1 W 4 6 2 3 1021.0 1021.8 1.8
29/03:30am 4.4 2.3 4.1 98 0.1 W 4 6 2 3 1021.0 1021.8 1.8
29/03:00am 4.7 3.1 4.3 97 0.2 W 2 6 1 3 1021.3 1022.1 1.8
29/02:30am 5.2 4.0 4.5 95 0.3 CALM 0 0 0 0 1021.6 1022.4 1.8
29/02:00am 5.8 4.3 4.8 93 0.4 W 2 4 1 2 1021.8 1022.6 1.8
29/01:30am 6.3 4.9 5.3 93 0.5 W 2 4 1 2 1022.2 1023.0 1.8
29/01:00am 6.4 4.2 5.4 93 0.5 W 6 7 3 4 1022.2 1023.0 1.8
29/12:30am 6.9 5.1 5.5 91 0.6 W 4 6 2 3 1022.2 1023.0 1.8
29/12:00am 7.1 5.0 5.6 90 0.7 W 6 9 3 5 1022.4 1023.2 1.8
 
Date/Time
EST
Temp
°C
App
Temp
°C
Dew
Point
Rel
Hum
%
Delta-T
°C
Wind Press
QNH
hPa
Press
MSL
hPa
Rain
since 9 am
mm
Dir
 
Spd
km/h
Gust
km/h
Spd
kts
Gust
kts
28/11:30pm 7.2 5.1 6.0 92 0.6 W 6 6 3 3 1022.6 1023.4 1.8
28/11:00pm 7.5 5.5 6.3 92 0.6 W 6 7 3 4 1022.6 1023.4 1.8
28/10:30pm 7.7 5.7 6.2 90 0.7 W 6 6 3 3 1022.6 1023.4 1.8
28/10:00pm 7.8 5.8 6.3 90 0.7 W 6 7 3 4 1022.7 1023.5 1.8
28/09:30pm 7.9 6.0 6.5 91 0.7 W 6 7 3 4 1022.7 1023.5 1.8
28/09:00pm 8.2 6.8 7.1 93 0.5 W 4 4 2 2 1022.5 1023.3 1.8
28/08:30pm 8.2 6.7 7.0 92 0.6 W 4 4 2 2 1022.3 1023.1 1.8
28/08:00pm 8.0 7.3 7.1 94 0.4 CALM 0 0 0 0 1022.1 1022.9 1.8
28/07:30pm 8.2 7.6 7.3 94 0.4 CALM 0 6 0 3 1021.8 1022.6 1.8
28/07:00pm 8.4 7.3 7.0 91 0.7 W 2 4 1 2 1021.7 1022.5 1.8
28/06:30pm 8.6 6.7 7.4 92 0.6 W 7 11 4 6 1021.4 1022.2 1.8
28/06:00pm 8.8 6.9 7.7 93 0.5 W 7 11 4 6 1021.1 1021.9 1.8
28/05:30pm 9.0 6.8 7.9 93 0.5 W 9 13 5 7 1020.7 1021.5 1.8
28/05:00pm 9.1 6.1 7.9 92 0.6 W 13 19 7 10 1020.5 1021.2 1.6
28/04:30pm 9.5 4.4 7.8 89 0.8 WNW 24 39 13 21 1020.1 1020.9 0.6
28/04:22pm 10.1 4.9 7.3 83 1.4 WNW 24 39 13 21 1019.6 1020.4 0.2
28/04:00pm 11.4 8.5 6.5 72 2.4 WNW 11 17 6 9 1019.5 1020.3 0.0
28/03:30pm 14.0 12.4 8.0 67 3.1 SW 6 22 3 12 1019.2 1020.0 0.0
28/03:00pm 11.9 9.4 6.4 69 2.7 SW 9 13 5 7 1019.3 1020.1 0.0

Other Formats:

Comma delimited format used in spreadsheet applications
http://www.bom.gov.au/fwo/IDN60801/IDN60801.94943.axf

JavaScript Object Notation format (JSON) in row-major order
http://www.bom.gov.au/fwo/IDN60801/IDN60801.94943.json